sensor_id;sensor_type;location;lat;lon;timestamp;temperature;humidity
1760;DHT22;877;46.266;20.062;2023-07-29T00:02:08;21.40;75.50
1760;DHT22;877;46.266;20.062;2023-07-29T00:04:34;21.50;75.20
1760;DHT22;877;46.266;20.062;2023-07-29T00:07:00;21.40;75.40
1760;DHT22;877;46.266;20.062;2023-07-29T00:09:26;21.30;76.20
1760;DHT22;877;46.266;20.062;2023-07-29T00:11:51;21.20;76.30
1760;DHT22;877;46.266;20.062;2023-07-29T00:14:17;21.30;76.30
1760;DHT22;877;46.266;20.062;2023-07-29T00:16:43;21.30;76.40
1760;DHT22;877;46.266;20.062;2023-07-29T00:19:09;21.40;75.90
1760;DHT22;877;46.266;20.062;2023-07-29T00:21:34;20.90;77.40
1760;DHT22;877;46.266;20.062;2023-07-29T00:24:00;20.70;78.40
1760;DHT22;877;46.266;20.062;2023-07-29T00:26:27;20.80;78.50
1760;DHT22;877;46.266;20.062;2023-07-29T00:28:55;20.80;78.50
1760;DHT22;877;46.266;20.062;2023-07-29T00:31:21;21.00;77.70
1760;DHT22;877;46.266;20.062;2023-07-29T00:33:47;21.10;77.20
1760;DHT22;877;46.266;20.062;2023-07-29T00:36:13;21.30;76.70
1760;DHT22;877;46.266;20.062;2023-07-29T00:38:39;21.30;76.40
1760;DHT22;877;46.266;20.062;2023-07-29T00:41:06;21.30;76.60
1760;DHT22;877;46.266;20.062;2023-07-29T00:43:32;21.30;76.40
1760;DHT22;877;46.266;20.062;2023-07-29T00:45:59;21.30;76.40
1760;DHT22;877;46.266;20.062;2023-07-29T00:48:26;21.30;76.40
1760;DHT22;877;46.266;20.062;2023-07-29T00:50:52;21.30;77.00
1760;DHT22;877;46.266;20.062;2023-07-29T00:53:18;21.20;77.00
1760;DHT22;877;46.266;20.062;2023-07-29T00:55:44;21.10;77.40
1760;DHT22;877;46.266;20.062;2023-07-29T00:58:10;21.00;78.00
1760;DHT22;877;46.266;20.062;2023-07-29T01:00:36;20.80;78.60
1760;DHT22;877;46.266;20.062;2023-07-29T01:03:02;20.80;78.80
1760;DHT22;877;46.266;20.062;2023-07-29T01:05:35;21.00;78.20
1760;DHT22;877;46.266;20.062;2023-07-29T01:08:17;21.10;77.80
1760;DHT22;877;46.266;20.062;2023-07-29T01:11:11;21.20;77.80
1760;DHT22;877;46.266;20.062;2023-07-29T01:13:46;21.40;76.50
1760;DHT22;877;46.266;20.062;2023-07-29T01:16:21;21.40;76.10
1760;DHT22;877;46.266;20.062;2023-07-29T01:18:50;21.10;77.30
1760;DHT22;877;46.266;20.062;2023-07-29T01:21:18;21.20;76.70
1760;DHT22;877;46.266;20.062;2023-07-29T01:23:44;21.20;76.70
1760;DHT22;877;46.266;20.062;2023-07-29T01:26:10;21.20;77.10
1760;DHT22;877;46.266;20.062;2023-07-29T01:28:36;21.30;76.70
1760;DHT22;877;46.266;20.062;2023-07-29T01:31:25;21.40;76.20
1760;DHT22;877;46.266;20.062;2023-07-29T01:34:05;21.20;76.00
1760;DHT22;877;46.266;20.062;2023-07-29T01:36:32;20.60;78.60
1760;DHT22;877;46.266;20.062;2023-07-29T01:39:00;20.40;79.30
1760;DHT22;877;46.266;20.062;2023-07-29T01:41:27;20.30;79.80
1760;DHT22;877;46.266;20.062;2023-07-29T01:43:54;20.10;80.80
1760;DHT22;877;46.266;20.062;2023-07-29T01:46:21;20.30;80.80
1760;DHT22;877;46.266;20.062;2023-07-29T01:48:47;20.50;79.90
1760;DHT22;877;46.266;20.062;2023-07-29T01:51:12;20.50;79.70
1760;DHT22;877;46.266;20.062;2023-07-29T01:53:38;20.50;80.20
1760;DHT22;877;46.266;20.062;2023-07-29T01:56:04;20.70;79.20
1760;DHT22;877;46.266;20.062;2023-07-29T01:58:30;20.30;80.40
1760;DHT22;877;46.266;20.062;2023-07-29T02:00:56;20.10;81.40
1760;DHT22;877;46.266;20.062;2023-07-29T02:03:21;20.10;81.60
1760;DHT22;877;46.266;20.062;2023-07-29T02:05:47;20.00;82.10
1760;DHT22;877;46.266;20.062;2023-07-29T02:08:13;20.00;82.20
1760;DHT22;877;46.266;20.062;2023-07-29T02:10:39;19.90;82.70
1760;DHT22;877;46.266;20.062;2023-07-29T02:13:05;19.90;82.70
1760;DHT22;877;46.266;20.062;2023-07-29T02:15:31;19.90;82.90
1760;DHT22;877;46.266;20.062;2023-07-29T02:17:57;19.80;83.40
1760;DHT22;877;46.266;20.062;2023-07-29T02:20:25;19.90;83.40
1760;DHT22;877;46.266;20.062;2023-07-29T02:22:51;20.00;83.20
1760;DHT22;877;46.266;20.062;2023-07-29T02:25:17;20.10;82.60
1760;DHT22;877;46.266;20.062;2023-07-29T02:27:42;20.20;82.30
1760;DHT22;877;46.266;20.062;2023-07-29T02:30:08;20.30;82.00
1760;DHT22;877;46.266;20.062;2023-07-29T02:32:38;20.30;82.00
1760;DHT22;877;46.266;20.062;2023-07-29T02:35:04;20.30;81.60
1760;DHT22;877;46.266;20.062;2023-07-29T02:37:30;20.10;82.30
1760;DHT22;877;46.266;20.062;2023-07-29T02:39:57;20.10;82.20
1760;DHT22;877;46.266;20.062;2023-07-29T02:42:23;20.20;82.40
1760;DHT22;877;46.266;20.062;2023-07-29T02:44:48;20.40;81.40
1760;DHT22;877;46.266;20.062;2023-07-29T02:47:14;20.40;81.40
1760;DHT22;877;46.266;20.062;2023-07-29T02:49:40;20.40;81.20
1760;DHT22;877;46.266;20.062;2023-07-29T02:52:06;20.50;80.90
1760;DHT22;877;46.266;20.062;2023-07-29T02:54:32;20.40;81.10
1760;DHT22;877;46.266;20.062;2023-07-29T02:56:58;20.20;82.10
1760;DHT22;877;46.266;20.062;2023-07-29T02:59:23;20.50;81.30
1760;DHT22;877;46.266;20.062;2023-07-29T03:01:50;20.30;81.40
1760;DHT22;877;46.266;20.062;2023-07-29T03:04:16;20.40;80.90
1760;DHT22;877;46.266;20.062;2023-07-29T03:06:41;20.20;81.70
1760;DHT22;877;46.266;20.062;2023-07-29T03:09:08;20.30;81.80
1760;DHT22;877;46.266;20.062;2023-07-29T03:11:34;20.20;82.00
1760;DHT22;877;46.266;20.062;2023-07-29T03:13:59;20.30;81.70
1760;DHT22;877;46.266;20.062;2023-07-29T03:16:26;20.30;81.60
1760;DHT22;877;46.266;20.062;2023-07-29T03:18:52;19.90;83.50
1760;DHT22;877;46.266;20.062;2023-07-29T03:21:18;19.80;83.90
1760;DHT22;877;46.266;20.062;2023-07-29T03:23:43;20.10;83.10
1760;DHT22;877;46.266;20.062;2023-07-29T03:26:09;20.20;82.80
1760;DHT22;877;46.266;20.062;2023-07-29T03:28:41;20.20;81.80
1760;DHT22;877;46.266;20.062;2023-07-29T03:31:07;20.10;82.50
1760;DHT22;877;46.266;20.062;2023-07-29T03:33:33;20.10;82.30
1760;DHT22;877;46.266;20.062;2023-07-29T03:35:59;20.20;81.90
1760;DHT22;877;46.266;20.062;2023-07-29T03:38:24;20.10;82.50
1760;DHT22;877;46.266;20.062;2023-07-29T03:40:50;20.10;82.70
1760;DHT22;877;46.266;20.062;2023-07-29T03:43:16;20.00;82.80
1760;DHT22;877;46.266;20.062;2023-07-29T03:45:43;19.90;83.80
1760;DHT22;877;46.266;20.062;2023-07-29T03:48:09;19.60;85.00
1760;DHT22;877;46.266;20.062;2023-07-29T03:50:35;19.70;84.80
1760;DHT22;877;46.266;20.062;2023-07-29T03:53:02;19.90;84.20
1760;DHT22;877;46.266;20.062;2023-07-29T03:55:29;20.00;83.80
1760;DHT22;877;46.266;20.062;2023-07-29T03:57:57;20.10;83.30
1760;DHT22;877;46.266;20.062;2023-07-29T04:00:23;20.10;83.00
1760;DHT22;877;46.266;20.062;2023-07-29T04:02:48;20.10;82.70
1760;DHT22;877;46.266;20.062;2023-07-29T04:05:14;20.20;82.50
1760;DHT22;877;46.266;20.062;2023-07-29T04:07:40;20.30;81.80
1760;DHT22;877;46.266;20.062;2023-07-29T04:10:07;20.50;81.40
1760;DHT22;877;46.266;20.062;2023-07-29T04:12:32;20.60;80.90
1760;DHT22;877;46.266;20.062;2023-07-29T04:14:58;20.60;80.80
1760;DHT22;877;46.266;20.062;2023-07-29T04:17:24;20.70;80.70
1760;DHT22;877;46.266;20.062;2023-07-29T04:19:50;20.70;80.20
1760;DHT22;877;46.266;20.062;2023-07-29T04:22:16;20.70;80.50
1760;DHT22;877;46.266;20.062;2023-07-29T04:24:42;20.80;80.80
1760;DHT22;877;46.266;20.062;2023-07-29T04:27:08;21.00;80.60
1760;DHT22;877;46.266;20.062;2023-07-29T04:29:34;21.20;80.00
1760;DHT22;877;46.266;20.062;2023-07-29T04:32:02;21.30;79.50
1760;DHT22;877;46.266;20.062;2023-07-29T04:34:28;21.40;79.10
1760;DHT22;877;46.266;20.062;2023-07-29T04:36:54;21.40;79.50
1760;DHT22;877;46.266;20.062;2023-07-29T04:39:20;21.50;78.70
1760;DHT22;877;46.266;20.062;2023-07-29T04:41:46;21.50;79.30
1760;DHT22;877;46.266;20.062;2023-07-29T04:44:12;21.70;78.70
1760;DHT22;877;46.266;20.062;2023-07-29T04:46:38;21.70;78.70
1760;DHT22;877;46.266;20.062;2023-07-29T04:49:04;21.80;77.60
1760;DHT22;877;46.266;20.062;2023-07-29T04:51:30;21.40;77.60
1760;DHT22;877;46.266;20.062;2023-07-29T04:53:57;21.60;78.80
1760;DHT22;877;46.266;20.062;2023-07-29T04:56:23;21.90;77.30
1760;DHT22;877;46.266;20.062;2023-07-29T04:58:49;21.60;76.60
1760;DHT22;877;46.266;20.062;2023-07-29T05:01:15;21.40;77.50
1760;DHT22;877;46.266;20.062;2023-07-29T05:03:41;21.60;76.60
1760;DHT22;877;46.266;20.062;2023-07-29T05:06:07;21.80;76.50
1760;DHT22;877;46.266;20.062;2023-07-29T05:08:33;22.00;76.00
1760;DHT22;877;46.266;20.062;2023-07-29T05:10:59;22.00;76.20
1760;DHT22;877;46.266;20.062;2023-07-29T05:13:26;21.90;76.00
1760;DHT22;877;46.266;20.062;2023-07-29T05:15:52;21.90;76.50
1760;DHT22;877;46.266;20.062;2023-07-29T05:18:18;21.90;76.70
1760;DHT22;877;46.266;20.062;2023-07-29T05:20:45;22.20;75.40
1760;DHT22;877;46.266;20.062;2023-07-29T05:23:12;22.30;75.00
1760;DHT22;877;46.266;20.062;2023-07-29T05:25:37;22.40;74.90
1760;DHT22;877;46.266;20.062;2023-07-29T05:28:03;22.30;75.10
1760;DHT22;877;46.266;20.062;2023-07-29T05:30:30;22.50;74.90
1760;DHT22;877;46.266;20.062;2023-07-29T05:33:00;22.50;74.30
1760;DHT22;877;46.266;20.062;2023-07-29T05:35:26;22.40;74.90
1760;DHT22;877;46.266;20.062;2023-07-29T05:37:52;22.30;75.00
1760;DHT22;877;46.266;20.062;2023-07-29T05:40:18;22.50;74.90
1760;DHT22;877;46.266;20.062;2023-07-29T05:42:44;22.70;74.40
1760;DHT22;877;46.266;20.062;2023-07-29T05:45:10;22.80;75.10
1760;DHT22;877;46.266;20.062;2023-07-29T05:47:37;23.00;73.80
1760;DHT22;877;46.266;20.062;2023-07-29T05:50:03;23.20;72.80
1760;DHT22;877;46.266;20.062;2023-07-29T05:52:30;23.10;72.50
1760;DHT22;877;46.266;20.062;2023-07-29T05:54:56;23.20;71.30
1760;DHT22;877;46.266;20.062;2023-07-29T05:57:22;23.30;71.70
1760;DHT22;877;46.266;20.062;2023-07-29T05:59:48;23.40;71.10
1760;DHT22;877;46.266;20.062;2023-07-29T06:02:14;23.60;71.30
1760;DHT22;877;46.266;20.062;2023-07-29T06:04:39;23.70;70.30
1760;DHT22;877;46.266;20.062;2023-07-29T06:07:06;23.70;70.90
1760;DHT22;877;46.266;20.062;2023-07-29T06:09:31;23.80;69.70
1760;DHT22;877;46.266;20.062;2023-07-29T06:11:57;23.80;70.00
1760;DHT22;877;46.266;20.062;2023-07-29T06:14:23;23.80;68.90
1760;DHT22;877;46.266;20.062;2023-07-29T06:16:49;24.00;70.10
1760;DHT22;877;46.266;20.062;2023-07-29T06:19:15;24.00;69.00
1760;DHT22;877;46.266;20.062;2023-07-29T06:21:41;24.00;69.00
1760;DHT22;877;46.266;20.062;2023-07-29T06:24:06;24.20;69.10
1760;DHT22;877;46.266;20.062;2023-07-29T06:26:32;24.50;68.40
1760;DHT22;877;46.266;20.062;2023-07-29T06:28:58;24.60;68.10
1760;DHT22;877;46.266;20.062;2023-07-29T06:31:24;24.80;67.90
1760;DHT22;877;46.266;20.062;2023-07-29T06:33:51;24.90;67.40
1760;DHT22;877;46.266;20.062;2023-07-29T06:36:16;25.10;65.40
1760;DHT22;877;46.266;20.062;2023-07-29T06:38:42;25.40;65.90
1760;DHT22;877;46.266;20.062;2023-07-29T06:41:08;25.70;64.90
1760;DHT22;877;46.266;20.062;2023-07-29T06:43:34;25.50;64.20
1760;DHT22;877;46.266;20.062;2023-07-29T06:46:00;25.40;64.00
1760;DHT22;877;46.266;20.062;2023-07-29T06:48:27;25.50;64.40
1760;DHT22;877;46.266;20.062;2023-07-29T06:50:53;25.70;64.20
1760;DHT22;877;46.266;20.062;2023-07-29T06:53:20;25.50;63.40
1760;DHT22;877;46.266;20.062;2023-07-29T06:55:46;25.40;63.70
1760;DHT22;877;46.266;20.062;2023-07-29T06:58:12;25.80;64.50
1760;DHT22;877;46.266;20.062;2023-07-29T07:00:38;26.10;63.70
1760;DHT22;877;46.266;20.062;2023-07-29T07:03:05;26.30;63.10
1760;DHT22;877;46.266;20.062;2023-07-29T07:05:31;26.10;62.40
1760;DHT22;877;46.266;20.062;2023-07-29T07:07:56;26.20;61.70
1760;DHT22;877;46.266;20.062;2023-07-29T07:10:22;25.90;60.90
1760;DHT22;877;46.266;20.062;2023-07-29T07:12:48;26.20;60.60
1760;DHT22;877;46.266;20.062;2023-07-29T07:15:14;26.20;60.30
1760;DHT22;877;46.266;20.062;2023-07-29T07:17:40;26.60;59.50
1760;DHT22;877;46.266;20.062;2023-07-29T07:20:06;26.80;59.10
1760;DHT22;877;46.266;20.062;2023-07-29T07:22:32;27.10;57.90
1760;DHT22;877;46.266;20.062;2023-07-29T07:24:58;27.00;58.10
1760;DHT22;877;46.266;20.062;2023-07-29T07:27:25;27.70;56.70
1760;DHT22;877;46.266;20.062;2023-07-29T07:29:50;28.20;55.80
1760;DHT22;877;46.266;20.062;2023-07-29T07:32:16;27.90;56.50
1760;DHT22;877;46.266;20.062;2023-07-29T07:34:42;27.30;55.90
1760;DHT22;877;46.266;20.062;2023-07-29T07:37:08;27.60;55.90
1760;DHT22;877;46.266;20.062;2023-07-29T07:39:34;28.00;55.50
1760;DHT22;877;46.266;20.062;2023-07-29T07:41:59;28.00;56.20
1760;DHT22;877;46.266;20.062;2023-07-29T07:44:25;27.60;55.90
1760;DHT22;877;46.266;20.062;2023-07-29T07:46:52;28.00;56.10
1760;DHT22;877;46.266;20.062;2023-07-29T07:49:19;27.80;55.70
1760;DHT22;877;46.266;20.062;2023-07-29T07:51:45;27.70;56.40
1760;DHT22;877;46.266;20.062;2023-07-29T07:54:11;27.80;55.20
1760;DHT22;877;46.266;20.062;2023-07-29T07:56:37;28.00;55.40
1760;DHT22;877;46.266;20.062;2023-07-29T07:59:02;28.70;52.60
1760;DHT22;877;46.266;20.062;2023-07-29T08:01:37;29.40;50.40
1760;DHT22;877;46.266;20.062;2023-07-29T08:04:03;29.50;50.90
1760;DHT22;877;46.266;20.062;2023-07-29T08:06:30;28.50;53.50
1760;DHT22;877;46.266;20.062;2023-07-29T08:08:56;28.10;54.20
1760;DHT22;877;46.266;20.062;2023-07-29T08:11:22;28.60;52.80
1760;DHT22;877;46.266;20.062;2023-07-29T08:13:47;28.10;54.90
1760;DHT22;877;46.266;20.062;2023-07-29T08:16:14;28.70;53.40
1760;DHT22;877;46.266;20.062;2023-07-29T08:18:39;29.20;53.60
1760;DHT22;877;46.266;20.062;2023-07-29T08:21:05;28.70;53.50
1760;DHT22;877;46.266;20.062;2023-07-29T08:23:32;29.20;52.30
1760;DHT22;877;46.266;20.062;2023-07-29T08:26:00;30.30;49.60
1760;DHT22;877;46.266;20.062;2023-07-29T08:28:35;30.90;47.00
1760;DHT22;877;46.266;20.062;2023-07-29T08:31:01;30.40;47.80
1760;DHT22;877;46.266;20.062;2023-07-29T08:33:27;30.40;46.40
1760;DHT22;877;46.266;20.062;2023-07-29T08:35:53;30.80;46.10
1760;DHT22;877;46.266;20.062;2023-07-29T08:38:20;30.50;46.00
1760;DHT22;877;46.266;20.062;2023-07-29T08:40:53;30.20;46.40
1760;DHT22;877;46.266;20.062;2023-07-29T08:43:28;30.50;46.40
1760;DHT22;877;46.266;20.062;2023-07-29T08:45:57;30.10;47.50
1760;DHT22;877;46.266;20.062;2023-07-29T08:48:32;30.40;46.20
1760;DHT22;877;46.266;20.062;2023-07-29T08:51:00;30.60;45.10
1760;DHT22;877;46.266;20.062;2023-07-29T08:53:27;29.80;47.40
1760;DHT22;877;46.266;20.062;2023-07-29T08:55:54;30.20;45.70
1760;DHT22;877;46.266;20.062;2023-07-29T08:58:21;30.70;46.00
1760;DHT22;877;46.266;20.062;2023-07-29T09:00:48;30.90;43.70
1760;DHT22;877;46.266;20.062;2023-07-29T09:03:15;30.90;43.80
1760;DHT22;877;46.266;20.062;2023-07-29T09:05:40;29.50;46.40
1760;DHT22;877;46.266;20.062;2023-07-29T09:08:06;29.80;45.90
1760;DHT22;877;46.266;20.062;2023-07-29T09:10:36;30.70;44.50
1760;DHT22;877;46.266;20.062;2023-07-29T09:13:03;31.70;42.70
1760;DHT22;877;46.266;20.062;2023-07-29T09:15:31;31.80;42.70
1760;DHT22;877;46.266;20.062;2023-07-29T09:17:58;31.40;44.70
1760;DHT22;877;46.266;20.062;2023-07-29T09:20:27;30.70;45.40
1760;DHT22;877;46.266;20.062;2023-07-29T09:22:55;31.70;44.00
1760;DHT22;877;46.266;20.062;2023-07-29T09:25:28;31.30;44.70
1760;DHT22;877;46.266;20.062;2023-07-29T09:27:59;31.10;45.00
1760;DHT22;877;46.266;20.062;2023-07-29T09:30:25;31.30;44.10
1760;DHT22;877;46.266;20.062;2023-07-29T09:32:58;31.90;43.80
1760;DHT22;877;46.266;20.062;2023-07-29T09:35:27;30.50;44.70
1760;DHT22;877;46.266;20.062;2023-07-29T09:37:55;30.80;44.10
1760;DHT22;877;46.266;20.062;2023-07-29T09:40:21;32.60;41.20
1760;DHT22;877;46.266;20.062;2023-07-29T09:42:51;32.90;41.50
1760;DHT22;877;46.266;20.062;2023-07-29T09:45:25;30.20;45.70
1760;DHT22;877;46.266;20.062;2023-07-29T09:47:52;29.80;47.30
1760;DHT22;877;46.266;20.062;2023-07-29T09:50:18;29.40;48.40
1760;DHT22;877;46.266;20.062;2023-07-29T09:52:45;29.60;47.40
1760;DHT22;877;46.266;20.062;2023-07-29T09:55:18;30.00;47.60
1760;DHT22;877;46.266;20.062;2023-07-29T09:57:45;30.20;46.30
1760;DHT22;877;46.266;20.062;2023-07-29T10:00:11;29.80;46.40
1760;DHT22;877;46.266;20.062;2023-07-29T10:02:43;30.30;45.30
1760;DHT22;877;46.266;20.062;2023-07-29T10:05:10;31.30;43.10
1760;DHT22;877;46.266;20.062;2023-07-29T10:07:39;31.20;44.00
1760;DHT22;877;46.266;20.062;2023-07-29T10:10:07;31.70;42.70
1760;DHT22;877;46.266;20.062;2023-07-29T10:12:34;32.30;41.90
1760;DHT22;877;46.266;20.062;2023-07-29T10:15:07;32.80;40.40
1760;DHT22;877;46.266;20.062;2023-07-29T10:17:37;32.20;41.70
1760;DHT22;877;46.266;20.062;2023-07-29T10:20:07;32.90;40.90
1760;DHT22;877;46.266;20.062;2023-07-29T10:22:37;33.30;40.40
1760;DHT22;877;46.266;20.062;2023-07-29T10:25:08;33.80;38.90
1760;DHT22;877;46.266;20.062;2023-07-29T10:30:13;32.70;41.10
1760;DHT22;877;46.266;20.062;2023-07-29T10:32:42;33.40;39.90
1760;DHT22;877;46.266;20.062;2023-07-29T10:35:09;32.70;40.80
1760;DHT22;877;46.266;20.062;2023-07-29T10:37:36;32.50;41.40
1760;DHT22;877;46.266;20.062;2023-07-29T10:40:06;32.00;42.10
1760;DHT22;877;46.266;20.062;2023-07-29T10:42:32;32.80;40.40
1760;DHT22;877;46.266;20.062;2023-07-29T10:44:58;31.50;42.50
1760;DHT22;877;46.266;20.062;2023-07-29T10:47:26;31.90;41.50
1760;DHT22;877;46.266;20.062;2023-07-29T10:49:54;33.10;39.90
1760;DHT22;877;46.266;20.062;2023-07-29T10:55:01;33.60;39.80
1760;DHT22;877;46.266;20.062;2023-07-29T10:57:37;32.90;40.70
1760;DHT22;877;46.266;20.062;2023-07-29T11:00:04;33.20;39.80
1760;DHT22;877;46.266;20.062;2023-07-29T11:02:35;33.00;39.70
1760;DHT22;877;46.266;20.062;2023-07-29T11:05:15;33.30;39.20
1760;DHT22;877;46.266;20.062;2023-07-29T11:07:46;33.30;38.90
1760;DHT22;877;46.266;20.062;2023-07-29T11:10:13;33.60;38.60
1760;DHT22;877;46.266;20.062;2023-07-29T11:12:47;34.20;38.40
1760;DHT22;877;46.266;20.062;2023-07-29T11:15:21;33.80;38.00
1760;DHT22;877;46.266;20.062;2023-07-29T11:17:58;32.90;39.00
1760;DHT22;877;46.266;20.062;2023-07-29T11:20:29;32.80;39.50
1760;DHT22;877;46.266;20.062;2023-07-29T11:22:57;31.50;41.00
1760;DHT22;877;46.266;20.062;2023-07-29T11:25:24;32.30;40.50
1760;DHT22;877;46.266;20.062;2023-07-29T11:27:55;33.10;38.70
1760;DHT22;877;46.266;20.062;2023-07-29T11:30:21;32.80;39.30
1760;DHT22;877;46.266;20.062;2023-07-29T11:32:55;32.90;39.50
1760;DHT22;877;46.266;20.062;2023-07-29T11:35:21;32.10;40.10
1760;DHT22;877;46.266;20.062;2023-07-29T11:37:50;32.90;38.60
1760;DHT22;877;46.266;20.062;2023-07-29T11:40:17;33.20;39.20
1760;DHT22;877;46.266;20.062;2023-07-29T11:42:45;33.90;37.40
1760;DHT22;877;46.266;20.062;2023-07-29T11:45:14;33.30;38.20
1760;DHT22;877;46.266;20.062;2023-07-29T11:47:40;32.30;39.00
1760;DHT22;877;46.266;20.062;2023-07-29T11:50:08;32.20;39.50
1760;DHT22;877;46.266;20.062;2023-07-29T11:52:37;32.70;37.60
1760;DHT22;877;46.266;20.062;2023-07-29T11:55:05;33.30;36.70
1760;DHT22;877;46.266;20.062;2023-07-29T11:57:34;33.40;37.50
1760;DHT22;877;46.266;20.062;2023-07-29T12:00:05;32.80;38.00
1760;DHT22;877;46.266;20.062;2023-07-29T12:02:36;32.80;37.80
1760;DHT22;877;46.266;20.062;2023-07-29T12:05:04;33.00;37.70
1760;DHT22;877;46.266;20.062;2023-07-29T12:07:30;32.90;38.10
1760;DHT22;877;46.266;20.062;2023-07-29T12:09:57;33.10;36.90
1760;DHT22;877;46.266;20.062;2023-07-29T12:12:23;32.70;37.30
1760;DHT22;877;46.266;20.062;2023-07-29T12:14:49;32.60;38.10
1760;DHT22;877;46.266;20.062;2023-07-29T12:17:18;32.60;38.10
1760;DHT22;877;46.266;20.062;2023-07-29T12:19:44;32.80;37.40
1760;DHT22;877;46.266;20.062;2023-07-29T12:22:10;32.90;37.70
1760;DHT22;877;46.266;20.062;2023-07-29T12:24:39;33.20;37.60
1760;DHT22;877;46.266;20.062;2023-07-29T12:27:10;32.80;37.20
1760;DHT22;877;46.266;20.062;2023-07-29T12:29:41;33.20;37.30
1760;DHT22;877;46.266;20.062;2023-07-29T12:32:08;32.90;38.10
1760;DHT22;877;46.266;20.062;2023-07-29T12:34:35;33.20;36.90
1760;DHT22;877;46.266;20.062;2023-07-29T12:37:02;32.70;38.10
1760;DHT22;877;46.266;20.062;2023-07-29T12:39:30;33.00;38.30
1760;DHT22;877;46.266;20.062;2023-07-29T12:41:57;33.40;37.90
1760;DHT22;877;46.266;20.062;2023-07-29T12:44:25;33.50;37.00
1760;DHT22;877;46.266;20.062;2023-07-29T12:46:51;33.80;37.60
1760;DHT22;877;46.266;20.062;2023-07-29T12:49:17;33.10;37.70
1760;DHT22;877;46.266;20.062;2023-07-29T12:51:44;32.90;38.80
1760;DHT22;877;46.266;20.062;2023-07-29T12:54:09;33.20;37.30
1760;DHT22;877;46.266;20.062;2023-07-29T12:56:35;33.10;37.60
1760;DHT22;877;46.266;20.062;2023-07-29T12:59:02;33.20;38.30
1760;DHT22;877;46.266;20.062;2023-07-29T13:01:28;33.00;37.80
1760;DHT22;877;46.266;20.062;2023-07-29T13:03:54;33.30;37.70
1760;DHT22;877;46.266;20.062;2023-07-29T13:06:20;33.10;38.40
1760;DHT22;877;46.266;20.062;2023-07-29T13:08:47;33.10;38.00
1760;DHT22;877;46.266;20.062;2023-07-29T13:11:13;33.70;37.00
1760;DHT22;877;46.266;20.062;2023-07-29T13:13:39;33.40;37.60
1760;DHT22;877;46.266;20.062;2023-07-29T13:16:05;33.30;37.60
1760;DHT22;877;46.266;20.062;2023-07-29T13:18:32;33.70;36.70
1760;DHT22;877;46.266;20.062;2023-07-29T13:20:58;33.60;37.10
1760;DHT22;877;46.266;20.062;2023-07-29T13:23:24;33.60;37.30
1760;DHT22;877;46.266;20.062;2023-07-29T13:25:49;33.20;37.80
1760;DHT22;877;46.266;20.062;2023-07-29T13:28:15;33.60;37.10
1760;DHT22;877;46.266;20.062;2023-07-29T13:30:41;33.30;36.90
1760;DHT22;877;46.266;20.062;2023-07-29T13:33:07;32.70;38.40
1760;DHT22;877;46.266;20.062;2023-07-29T13:35:33;33.20;37.60
1760;DHT22;877;46.266;20.062;2023-07-29T13:38:00;32.90;38.20
1760;DHT22;877;46.266;20.062;2023-07-29T13:40:26;33.60;37.50
1760;DHT22;877;46.266;20.062;2023-07-29T13:42:52;33.10;37.30
1760;DHT22;877;46.266;20.062;2023-07-29T13:45:18;33.20;38.40
1760;DHT22;877;46.266;20.062;2023-07-29T13:47:44;33.00;38.10
1760;DHT22;877;46.266;20.062;2023-07-29T13:50:10;33.70;36.00
1760;DHT22;877;46.266;20.062;2023-07-29T13:52:37;33.20;36.80
1760;DHT22;877;46.266;20.062;2023-07-29T13:55:04;33.80;36.70
1760;DHT22;877;46.266;20.062;2023-07-29T13:57:31;34.10;36.60
1760;DHT22;877;46.266;20.062;2023-07-29T13:59:57;33.90;35.70
1760;DHT22;877;46.266;20.062;2023-07-29T14:02:23;34.10;36.80
1760;DHT22;877;46.266;20.062;2023-07-29T14:04:49;33.90;36.10
1760;DHT22;877;46.266;20.062;2023-07-29T14:07:15;33.40;35.80
1760;DHT22;877;46.266;20.062;2023-07-29T14:09:41;33.70;36.00
1760;DHT22;877;46.266;20.062;2023-07-29T14:12:08;34.00;35.10
1760;DHT22;877;46.266;20.062;2023-07-29T14:14:38;33.70;35.20
1760;DHT22;877;46.266;20.062;2023-07-29T14:17:04;34.00;35.10
1760;DHT22;877;46.266;20.062;2023-07-29T14:19:31;34.10;34.80
1760;DHT22;877;46.266;20.062;2023-07-29T14:21:58;34.40;34.60
1760;DHT22;877;46.266;20.062;2023-07-29T14:24:23;33.80;34.80
1760;DHT22;877;46.266;20.062;2023-07-29T14:26:49;34.30;35.30
1760;DHT22;877;46.266;20.062;2023-07-29T14:29:15;33.60;35.20
1760;DHT22;877;46.266;20.062;2023-07-29T14:31:42;34.10;34.40
1760;DHT22;877;46.266;20.062;2023-07-29T14:34:09;33.80;34.80
1760;DHT22;877;46.266;20.062;2023-07-29T14:36:36;33.90;34.80
1760;DHT22;877;46.266;20.062;2023-07-29T14:39:01;33.80;35.30
1760;DHT22;877;46.266;20.062;2023-07-29T14:41:27;33.80;34.40
1760;DHT22;877;46.266;20.062;2023-07-29T14:43:53;34.10;34.80
1760;DHT22;877;46.266;20.062;2023-07-29T14:46:19;34.30;34.60
1760;DHT22;877;46.266;20.062;2023-07-29T14:48:46;34.20;34.30
1760;DHT22;877;46.266;20.062;2023-07-29T14:51:13;33.80;34.70
1760;DHT22;877;46.266;20.062;2023-07-29T14:53:39;34.10;34.80
1760;DHT22;877;46.266;20.062;2023-07-29T14:56:05;34.70;33.70
1760;DHT22;877;46.266;20.062;2023-07-29T14:58:31;34.40;33.70
1760;DHT22;877;46.266;20.062;2023-07-29T15:00:56;34.60;34.20
1760;DHT22;877;46.266;20.062;2023-07-29T15:03:24;35.10;33.40
1760;DHT22;877;46.266;20.062;2023-07-29T15:05:50;34.50;33.90
1760;DHT22;877;46.266;20.062;2023-07-29T15:08:16;34.00;34.10
1760;DHT22;877;46.266;20.062;2023-07-29T15:10:46;33.90;34.30
1760;DHT22;877;46.266;20.062;2023-07-29T15:13:12;33.80;34.60
1760;DHT22;877;46.266;20.062;2023-07-29T15:15:41;34.40;33.70
1760;DHT22;877;46.266;20.062;2023-07-29T15:18:07;34.50;33.80
1760;DHT22;877;46.266;20.062;2023-07-29T15:20:33;35.30;33.40
1760;DHT22;877;46.266;20.062;2023-07-29T15:22:59;35.80;32.90
1760;DHT22;877;46.266;20.062;2023-07-29T15:25:25;35.80;32.20
1760;DHT22;877;46.266;20.062;2023-07-29T15:27:51;35.60;32.30
1760;DHT22;877;46.266;20.062;2023-07-29T15:30:16;34.80;33.70
1760;DHT22;877;46.266;20.062;2023-07-29T15:32:42;34.90;33.50
1760;DHT22;877;46.266;20.062;2023-07-29T15:35:08;34.50;32.80
1760;DHT22;877;46.266;20.062;2023-07-29T15:37:34;34.20;34.30
1760;DHT22;877;46.266;20.062;2023-07-29T15:40:00;34.30;34.40
1760;DHT22;877;46.266;20.062;2023-07-29T15:42:25;34.10;34.50
1760;DHT22;877;46.266;20.062;2023-07-29T15:44:51;34.00;34.70
1760;DHT22;877;46.266;20.062;2023-07-29T15:47:17;34.30;34.60
1760;DHT22;877;46.266;20.062;2023-07-29T15:49:45;34.80;33.80
1760;DHT22;877;46.266;20.062;2023-07-29T15:52:10;33.80;35.90
1760;DHT22;877;46.266;20.062;2023-07-29T15:54:40;34.40;34.80
1760;DHT22;877;46.266;20.062;2023-07-29T15:57:06;34.00;35.40
1760;DHT22;877;46.266;20.062;2023-07-29T15:59:32;34.00;35.80
1760;DHT22;877;46.266;20.062;2023-07-29T16:01:58;33.90;35.50
1760;DHT22;877;46.266;20.062;2023-07-29T16:04:23;33.90;35.80
1760;DHT22;877;46.266;20.062;2023-07-29T16:06:49;34.30;35.20